sensor_id;sensor_type;location;lat;lon;timestamp;P1;durP1;ratioP1;P2;durP2;ratioP2
52186;SDS011;38161;53.020;6.598;2023-08-31T00:00:45;58.80;;;55.58;;
52186;SDS011;38161;53.020;6.598;2023-08-31T00:03:11;59.10;;;55.70;;
52186;SDS011;38161;53.020;6.598;2023-08-31T00:05:40;58.53;;;55.42;;
52186;SDS011;38161;53.020;6.598;2023-08-31T00:08:07;59.65;;;56.45;;
52186;SDS011;38161;53.020;6.598;2023-08-31T00:10:33;60.47;;;57.28;;
52186;SDS011;38161;53.020;6.598;2023-08-31T00:13:00;55.88;;;52.70;;
52186;SDS011;38161;53.020;6.598;2023-08-31T00:15:31;58.10;;;54.97;;
52186;SDS011;38161;53.020;6.598;2023-08-31T00:18:00;60.70;;;57.28;;
52186;SDS011;38161;53.020;6.598;2023-08-31T00:20:26;57.58;;;54.50;;
52186;SDS011;38161;53.020;6.598;2023-08-31T00:22:52;58.10;;;54.83;;
52186;SDS011;38161;53.020;6.598;2023-08-31T00:25:18;58.35;;;55.08;;
52186;SDS011;38161;53.020;6.598;2023-08-31T00:27:44;57.65;;;54.47;;
52186;SDS011;38161;53.020;6.598;2023-08-31T00:30:12;52.47;;;49.55;;
52186;SDS011;38161;53.020;6.598;2023-08-31T00:32:39;57.63;;;54.38;;
52186;SDS011;38161;53.020;6.598;2023-08-31T00:35:07;58.92;;;55.63;;
52186;SDS011;38161;53.020;6.598;2023-08-31T00:37:34;59.60;;;56.35;;
52186;SDS011;38161;53.020;6.598;2023-08-31T00:40:00;51.47;;;48.25;;
52186;SDS011;38161;53.020;6.598;2023-08-31T00:44:54;49.00;;;46.33;;
52186;SDS011;38161;53.020;6.598;2023-08-31T00:47:20;56.30;;;53.28;;
52186;SDS011;38161;53.020;6.598;2023-08-31T00:49:47;53.67;;;50.30;;
52186;SDS011;38161;53.020;6.598;2023-08-31T00:52:14;60.33;;;56.88;;
52186;SDS011;38161;53.020;6.598;2023-08-31T00:57:07;52.65;;;49.70;;
52186;SDS011;38161;53.020;6.598;2023-08-31T00:59:34;49.22;;;46.63;;
52186;SDS011;38161;53.020;6.598;2023-08-31T01:07:13;52.58;;;49.80;;
52186;SDS011;38161;53.020;6.598;2023-08-31T01:15:03;50.78;;;48.15;;
52186;SDS011;38161;53.020;6.598;2023-08-31T01:17:33;57.63;;;54.47;;
52186;SDS011;38161;53.020;6.598;2023-08-31T01:20:09;54.20;;;51.15;;
52186;SDS011;38161;53.020;6.598;2023-08-31T01:22:40;56.08;;;53.05;;
52186;SDS011;38161;53.020;6.598;2023-08-31T01:25:12;52.35;;;49.55;;
52186;SDS011;38161;53.020;6.598;2023-08-31T01:27:38;62.85;;;59.53;;
52186;SDS011;38161;53.020;6.598;2023-08-31T01:30:05;54.80;;;51.88;;
52186;SDS011;38161;53.020;6.598;2023-08-31T01:34:58;52.53;;;49.78;;
52186;SDS011;38161;53.020;6.598;2023-08-31T01:40:20;55.22;;;52.33;;
52186;SDS011;38161;53.020;6.598;2023-08-31T01:43:04;52.78;;;50.00;;
52186;SDS011;38161;53.020;6.598;2023-08-31T01:45:33;55.33;;;52.10;;
52186;SDS011;38161;53.020;6.598;2023-08-31T01:48:00;51.08;;;48.40;;
52186;SDS011;38161;53.020;6.598;2023-08-31T01:50:26;54.15;;;49.78;;
52186;SDS011;38161;53.020;6.598;2023-08-31T01:52:52;51.08;;;47.97;;
52186;SDS011;38161;53.020;6.598;2023-08-31T01:55:22;46.95;;;44.42;;
52186;SDS011;38161;53.020;6.598;2023-08-31T01:57:49;50.97;;;48.40;;
52186;SDS011;38161;53.020;6.598;2023-08-31T02:00:16;52.03;;;49.38;;
52186;SDS011;38161;53.020;6.598;2023-08-31T02:02:43;50.03;;;47.45;;
52186;SDS011;38161;53.020;6.598;2023-08-31T02:05:09;54.78;;;51.97;;
52186;SDS011;38161;53.020;6.598;2023-08-31T02:07:35;53.03;;;50.20;;
52186;SDS011;38161;53.020;6.598;2023-08-31T02:10:02;52.55;;;49.65;;
52186;SDS011;38161;53.020;6.598;2023-08-31T02:12:31;49.92;;;47.35;;
52186;SDS011;38161;53.020;6.598;2023-08-31T02:17:23;53.80;;;51.03;;
52186;SDS011;38161;53.020;6.598;2023-08-31T02:19:50;53.47;;;50.75;;
52186;SDS011;38161;53.020;6.598;2023-08-31T02:22:16;50.13;;;47.50;;
52186;SDS011;38161;53.020;6.598;2023-08-31T02:24:42;49.55;;;47.05;;
52186;SDS011;38161;53.020;6.598;2023-08-31T02:27:09;53.20;;;50.38;;
52186;SDS011;38161;53.020;6.598;2023-08-31T02:29:35;56.40;;;53.43;;
52186;SDS011;38161;53.020;6.598;2023-08-31T02:32:03;52.10;;;49.47;;
52186;SDS011;38161;53.020;6.598;2023-08-31T02:34:30;52.78;;;49.88;;
52186;SDS011;38161;53.020;6.598;2023-08-31T02:36:55;48.50;;;45.88;;
52186;SDS011;38161;53.020;6.598;2023-08-31T02:39:21;43.77;;;41.30;;
52186;SDS011;38161;53.020;6.598;2023-08-31T02:41:48;46.22;;;43.85;;
52186;SDS011;38161;53.020;6.598;2023-08-31T02:44:13;47.30;;;44.75;;
52186;SDS011;38161;53.020;6.598;2023-08-31T02:46:39;49.28;;;46.83;;
52186;SDS011;38161;53.020;6.598;2023-08-31T02:49:05;49.47;;;46.95;;
52186;SDS011;38161;53.020;6.598;2023-08-31T02:51:31;51.72;;;48.92;;
52186;SDS011;38161;53.020;6.598;2023-08-31T02:53:57;49.07;;;46.20;;
52186;SDS011;38161;53.020;6.598;2023-08-31T02:56:23;48.83;;;46.30;;
52186;SDS011;38161;53.020;6.598;2023-08-31T02:58:48;51.42;;;48.83;;
52186;SDS011;38161;53.020;6.598;2023-08-31T03:01:14;51.63;;;48.97;;
52186;SDS011;38161;53.020;6.598;2023-08-31T03:03:41;53.60;;;50.83;;
52186;SDS011;38161;53.020;6.598;2023-08-31T03:06:08;51.72;;;49.05;;
52186;SDS011;38161;53.020;6.598;2023-08-31T03:08:35;46.78;;;44.30;;
52186;SDS011;38161;53.020;6.598;2023-08-31T03:11:02;54.83;;;51.83;;
52186;SDS011;38161;53.020;6.598;2023-08-31T03:13:29;46.80;;;44.30;;
52186;SDS011;38161;53.020;6.598;2023-08-31T03:15:55;51.15;;;48.50;;
52186;SDS011;38161;53.020;6.598;2023-08-31T03:18:22;54.00;;;51.00;;
52186;SDS011;38161;53.020;6.598;2023-08-31T03:20:48;53.15;;;50.17;;
52186;SDS011;38161;53.020;6.598;2023-08-31T03:23:14;54.22;;;51.33;;
52186;SDS011;38161;53.020;6.598;2023-08-31T03:25:40;52.15;;;49.50;;
52186;SDS011;38161;53.020;6.598;2023-08-31T03:28:06;53.55;;;50.63;;
52186;SDS011;38161;53.020;6.598;2023-08-31T03:30:32;53.35;;;50.63;;
52186;SDS011;38161;53.020;6.598;2023-08-31T03:32:58;54.70;;;51.85;;
52186;SDS011;38161;53.020;6.598;2023-08-31T03:35:24;55.60;;;52.58;;
52186;SDS011;38161;53.020;6.598;2023-08-31T03:37:52;56.10;;;52.88;;
52186;SDS011;38161;53.020;6.598;2023-08-31T03:40:18;52.65;;;49.90;;
52186;SDS011;38161;53.020;6.598;2023-08-31T03:42:44;59.45;;;56.15;;
52186;SDS011;38161;53.020;6.598;2023-08-31T03:45:10;57.22;;;54.22;;
52186;SDS011;38161;53.020;6.598;2023-08-31T03:47:37;54.35;;;51.47;;
52186;SDS011;38161;53.020;6.598;2023-08-31T03:50:03;54.60;;;51.58;;
52186;SDS011;38161;53.020;6.598;2023-08-31T03:52:29;54.17;;;51.25;;
52186;SDS011;38161;53.020;6.598;2023-08-31T03:54:55;50.87;;;48.17;;
52186;SDS011;38161;53.020;6.598;2023-08-31T03:57:21;48.55;;;45.95;;
52186;SDS011;38161;53.020;6.598;2023-08-31T03:59:47;58.85;;;55.63;;
52186;SDS011;38161;53.020;6.598;2023-08-31T04:02:13;59.25;;;55.83;;
52186;SDS011;38161;53.020;6.598;2023-08-31T04:04:39;54.08;;;51.10;;
52186;SDS011;38161;53.020;6.598;2023-08-31T04:07:05;55.88;;;52.60;;
52186;SDS011;38161;53.020;6.598;2023-08-31T04:09:34;55.95;;;52.78;;
52186;SDS011;38161;53.020;6.598;2023-08-31T04:11:59;56.97;;;53.90;;
52186;SDS011;38161;53.020;6.598;2023-08-31T04:14:26;54.80;;;51.80;;
52186;SDS011;38161;53.020;6.598;2023-08-31T04:16:53;57.10;;;53.72;;
52186;SDS011;38161;53.020;6.598;2023-08-31T04:19:19;61.55;;;58.03;;
52186;SDS011;38161;53.020;6.598;2023-08-31T04:21:45;59.80;;;56.20;;
52186;SDS011;38161;53.020;6.598;2023-08-31T04:24:11;52.63;;;49.70;;
52186;SDS011;38161;53.020;6.598;2023-08-31T04:26:37;55.25;;;51.80;;
52186;SDS011;38161;53.020;6.598;2023-08-31T04:29:03;61.35;;;57.88;;
52186;SDS011;38161;53.020;6.598;2023-08-31T04:31:32;56.70;;;53.40;;
52186;SDS011;38161;53.020;6.598;2023-08-31T04:33:58;55.60;;;52.60;;
52186;SDS011;38161;53.020;6.598;2023-08-31T04:36:24;54.23;;;50.90;;
52186;SDS011;38161;53.020;6.598;2023-08-31T04:38:53;53.47;;;50.35;;
52186;SDS011;38161;53.020;6.598;2023-08-31T04:41:19;50.60;;;47.72;;
52186;SDS011;38161;53.020;6.598;2023-08-31T04:43:46;56.80;;;53.40;;
52186;SDS011;38161;53.020;6.598;2023-08-31T04:46:13;57.35;;;54.08;;
52186;SDS011;38161;53.020;6.598;2023-08-31T04:48:39;48.72;;;45.75;;
52186;SDS011;38161;53.020;6.598;2023-08-31T04:51:05;50.53;;;47.63;;
52186;SDS011;38161;53.020;6.598;2023-08-31T04:53:31;52.50;;;49.38;;
52186;SDS011;38161;53.020;6.598;2023-08-31T04:55:57;53.80;;;50.80;;
52186;SDS011;38161;53.020;6.598;2023-08-31T04:58:23;56.80;;;53.42;;
52186;SDS011;38161;53.020;6.598;2023-08-31T05:00:48;56.92;;;53.38;;
52186;SDS011;38161;53.020;6.598;2023-08-31T05:03:15;60.60;;;57.05;;
52186;SDS011;38161;53.020;6.598;2023-08-31T05:05:40;54.50;;;51.33;;
52186;SDS011;38161;53.020;6.598;2023-08-31T05:08:09;62.45;;;58.83;;
52186;SDS011;38161;53.020;6.598;2023-08-31T05:10:35;58.17;;;54.65;;
52186;SDS011;38161;53.020;6.598;2023-08-31T05:13:01;60.80;;;57.33;;
52186;SDS011;38161;53.020;6.598;2023-08-31T05:15:29;56.10;;;52.85;;
52186;SDS011;38161;53.020;6.598;2023-08-31T05:17:55;55.85;;;52.35;;
52186;SDS011;38161;53.020;6.598;2023-08-31T05:20:21;57.90;;;54.35;;
52186;SDS011;38161;53.020;6.598;2023-08-31T05:22:49;57.08;;;53.75;;
52186;SDS011;38161;53.020;6.598;2023-08-31T05:25:16;54.90;;;51.65;;
52186;SDS011;38161;53.020;6.598;2023-08-31T05:27:42;54.72;;;51.55;;
52186;SDS011;38161;53.020;6.598;2023-08-31T05:30:07;54.55;;;51.45;;
52186;SDS011;38161;53.020;6.598;2023-08-31T05:35:00;60.65;;;57.10;;
52186;SDS011;38161;53.020;6.598;2023-08-31T05:37:25;60.30;;;56.47;;
52186;SDS011;38161;53.020;6.598;2023-08-31T05:39:51;62.35;;;58.60;;
52186;SDS011;38161;53.020;6.598;2023-08-31T05:42:17;53.75;;;50.60;;
52186;SDS011;38161;53.020;6.598;2023-08-31T05:44:43;58.35;;;54.90;;
52186;SDS011;38161;53.020;6.598;2023-08-31T05:47:09;54.38;;;51.28;;
52186;SDS011;38161;53.020;6.598;2023-08-31T05:49:35;58.22;;;54.78;;
52186;SDS011;38161;53.020;6.598;2023-08-31T05:52:01;59.33;;;55.75;;
52186;SDS011;38161;53.020;6.598;2023-08-31T05:54:27;62.72;;;59.03;;
52186;SDS011;38161;53.020;6.598;2023-08-31T05:56:53;53.80;;;50.67;;
52186;SDS011;38161;53.020;6.598;2023-08-31T05:59:18;54.05;;;50.83;;
52186;SDS011;38161;53.020;6.598;2023-08-31T06:01:45;60.72;;;57.22;;
52186;SDS011;38161;53.020;6.598;2023-08-31T06:04:10;57.90;;;54.28;;
52186;SDS011;38161;53.020;6.598;2023-08-31T06:06:36;52.10;;;49.20;;
52186;SDS011;38161;53.020;6.598;2023-08-31T06:09:03;50.22;;;47.38;;
52186;SDS011;38161;53.020;6.598;2023-08-31T06:11:30;53.83;;;50.63;;
52186;SDS011;38161;53.020;6.598;2023-08-31T06:13:55;51.73;;;48.77;;
52186;SDS011;38161;53.020;6.598;2023-08-31T06:16:22;58.78;;;55.42;;
52186;SDS011;38161;53.020;6.598;2023-08-31T06:18:49;57.88;;;54.50;;
52186;SDS011;38161;53.020;6.598;2023-08-31T06:21:14;50.10;;;47.27;;
52186;SDS011;38161;53.020;6.598;2023-08-31T06:23:40;58.58;;;55.00;;
52186;SDS011;38161;53.020;6.598;2023-08-31T06:26:06;54.35;;;51.00;;
52186;SDS011;38161;53.020;6.598;2023-08-31T06:28:32;50.37;;;47.37;;
52186;SDS011;38161;53.020;6.598;2023-08-31T06:30:58;55.85;;;52.63;;
52186;SDS011;38161;53.020;6.598;2023-08-31T06:35:50;74.43;;;70.18;;
52186;SDS011;38161;53.020;6.598;2023-08-31T06:40:46;61.67;;;58.17;;
52186;SDS011;38161;53.020;6.598;2023-08-31T06:43:12;58.75;;;55.13;;
52186;SDS011;38161;53.020;6.598;2023-08-31T06:45:38;62.28;;;58.53;;
52186;SDS011;38161;53.020;6.598;2023-08-31T06:48:04;55.38;;;52.13;;
52186;SDS011;38161;53.020;6.598;2023-08-31T06:50:30;50.20;;;47.35;;
52186;SDS011;38161;53.020;6.598;2023-08-31T06:52:56;64.63;;;60.83;;
52186;SDS011;38161;53.020;6.598;2023-08-31T06:55:21;53.30;;;50.33;;
52186;SDS011;38161;53.020;6.598;2023-08-31T06:57:48;54.88;;;51.88;;
52186;SDS011;38161;53.020;6.598;2023-08-31T07:00:14;58.63;;;55.20;;
52186;SDS011;38161;53.020;6.598;2023-08-31T07:02:40;61.72;;;57.72;;
52186;SDS011;38161;53.020;6.598;2023-08-31T07:05:07;59.58;;;56.00;;
52186;SDS011;38161;53.020;6.598;2023-08-31T07:07:33;55.90;;;52.75;;
52186;SDS011;38161;53.020;6.598;2023-08-31T07:09:58;58.78;;;55.28;;
52186;SDS011;38161;53.020;6.598;2023-08-31T07:12:25;59.80;;;56.35;;
52186;SDS011;38161;53.020;6.598;2023-08-31T07:14:51;69.15;;;65.18;;
52186;SDS011;38161;53.020;6.598;2023-08-31T07:17:17;63.92;;;60.45;;
52186;SDS011;38161;53.020;6.598;2023-08-31T07:19:44;65.90;;;62.08;;
52186;SDS011;38161;53.020;6.598;2023-08-31T07:22:10;69.50;;;65.60;;
52186;SDS011;38161;53.020;6.598;2023-08-31T07:24:36;66.45;;;62.47;;
52186;SDS011;38161;53.020;6.598;2023-08-31T07:27:02;61.47;;;58.17;;
52186;SDS011;38161;53.020;6.598;2023-08-31T07:29:29;69.47;;;65.75;;
52186;SDS011;38161;53.020;6.598;2023-08-31T07:34:21;59.15;;;55.75;;
52186;SDS011;38161;53.020;6.598;2023-08-31T07:36:46;67.15;;;63.20;;
52186;SDS011;38161;53.020;6.598;2023-08-31T07:39:12;66.80;;;63.15;;
52186;SDS011;38161;53.020;6.598;2023-08-31T07:41:38;63.88;;;60.35;;
52186;SDS011;38161;53.020;6.598;2023-08-31T07:44:05;67.22;;;63.55;;
52186;SDS011;38161;53.020;6.598;2023-08-31T07:46:31;65.20;;;61.67;;
52186;SDS011;38161;53.020;6.598;2023-08-31T07:48:57;61.28;;;57.95;;
52186;SDS011;38161;53.020;6.598;2023-08-31T07:51:23;74.05;;;69.60;;
52186;SDS011;38161;53.020;6.598;2023-08-31T07:53:49;69.65;;;65.88;;
52186;SDS011;38161;53.020;6.598;2023-08-31T07:56:15;75.22;;;70.90;;
52186;SDS011;38161;53.020;6.598;2023-08-31T07:58:41;70.72;;;66.88;;
52186;SDS011;38161;53.020;6.598;2023-08-31T08:01:07;75.22;;;71.03;;
52186;SDS011;38161;53.020;6.598;2023-08-31T08:03:33;77.40;;;73.10;;
52186;SDS011;38161;53.020;6.598;2023-08-31T08:05:59;84.72;;;79.93;;
52186;SDS011;38161;53.020;6.598;2023-08-31T08:08:25;83.78;;;78.80;;
52186;SDS011;38161;53.020;6.598;2023-08-31T08:10:54;83.25;;;78.47;;
52186;SDS011;38161;53.020;6.598;2023-08-31T08:13:20;80.47;;;75.82;;
52186;SDS011;38161;53.020;6.598;2023-08-31T08:15:46;83.10;;;78.55;;
52186;SDS011;38161;53.020;6.598;2023-08-31T08:18:12;83.35;;;78.65;;
52186;SDS011;38161;53.020;6.598;2023-08-31T08:20:38;83.07;;;78.50;;
52186;SDS011;38161;53.020;6.598;2023-08-31T08:23:06;83.63;;;78.93;;
52186;SDS011;38161;53.020;6.598;2023-08-31T08:25:32;76.00;;;71.78;;
52186;SDS011;38161;53.020;6.598;2023-08-31T08:27:59;73.22;;;69.32;;
52186;SDS011;38161;53.020;6.598;2023-08-31T08:30:25;71.43;;;67.53;;
52186;SDS011;38161;53.020;6.598;2023-08-31T08:32:51;79.95;;;75.40;;
52186;SDS011;38161;53.020;6.598;2023-08-31T08:35:17;79.97;;;75.75;;
52186;SDS011;38161;53.020;6.598;2023-08-31T08:37:42;84.50;;;79.85;;
52186;SDS011;38161;53.020;6.598;2023-08-31T08:40:09;84.45;;;79.50;;
52186;SDS011;38161;53.020;6.598;2023-08-31T08:42:38;78.10;;;73.80;;
52186;SDS011;38161;53.020;6.598;2023-08-31T08:45:07;72.90;;;68.93;;
52186;SDS011;38161;53.020;6.598;2023-08-31T08:47:38;83.05;;;78.18;;
52186;SDS011;38161;53.020;6.598;2023-08-31T08:50:05;84.05;;;79.35;;
52186;SDS011;38161;53.020;6.598;2023-08-31T08:54:57;75.85;;;71.55;;
52186;SDS011;38161;53.020;6.598;2023-08-31T08:57:26;77.72;;;73.47;;
52186;SDS011;38161;53.020;6.598;2023-08-31T08:59:51;75.32;;;71.18;;
52186;SDS011;38161;53.020;6.598;2023-08-31T09:02:17;83.38;;;78.93;;
52186;SDS011;38161;53.020;6.598;2023-08-31T09:04:43;87.90;;;83.05;;
52186;SDS011;38161;53.020;6.598;2023-08-31T09:07:09;81.35;;;76.95;;
52186;SDS011;38161;53.020;6.598;2023-08-31T09:09:47;82.78;;;78.18;;
52186;SDS011;38161;53.020;6.598;2023-08-31T09:12:15;94.93;;;89.22;;
52186;SDS011;38161;53.020;6.598;2023-08-31T09:14:41;81.55;;;76.57;;
52186;SDS011;38161;53.020;6.598;2023-08-31T09:17:07;83.18;;;78.53;;
52186;SDS011;38161;53.020;6.598;2023-08-31T09:19:33;73.60;;;69.35;;
52186;SDS011;38161;53.020;6.598;2023-08-31T09:21:58;79.57;;;75.47;;
52186;SDS011;38161;53.020;6.598;2023-08-31T09:24:24;82.38;;;77.90;;
52186;SDS011;38161;53.020;6.598;2023-08-31T09:26:55;78.80;;;74.50;;
52186;SDS011;38161;53.020;6.598;2023-08-31T09:29:23;80.70;;;75.95;;
52186;SDS011;38161;53.020;6.598;2023-08-31T09:31:49;85.57;;;80.80;;
52186;SDS011;38161;53.020;6.598;2023-08-31T09:34:15;79.97;;;75.45;;
52186;SDS011;38161;53.020;6.598;2023-08-31T09:36:42;79.63;;;75.28;;
52186;SDS011;38161;53.020;6.598;2023-08-31T09:41:40;70.80;;;66.95;;
52186;SDS011;38161;53.020;6.598;2023-08-31T09:44:18;76.18;;;72.07;;
52186;SDS011;38161;53.020;6.598;2023-08-31T09:46:45;82.50;;;77.90;;
52186;SDS011;38161;53.020;6.598;2023-08-31T09:49:13;79.47;;;75.22;;
52186;SDS011;38161;53.020;6.598;2023-08-31T09:51:44;83.30;;;78.38;;
52186;SDS011;38161;53.020;6.598;2023-08-31T09:54:14;91.00;;;86.13;;
52186;SDS011;38161;53.020;6.598;2023-08-31T09:56:42;91.82;;;86.72;;
52186;SDS011;38161;53.020;6.598;2023-08-31T09:59:09;97.53;;;92.07;;
52186;SDS011;38161;53.020;6.598;2023-08-31T10:01:37;89.65;;;84.68;;
52186;SDS011;38161;53.020;6.598;2023-08-31T10:04:03;95.85;;;90.70;;
52186;SDS011;38161;53.020;6.598;2023-08-31T10:06:31;109.25;;;102.35;;
52186;SDS011;38161;53.020;6.598;2023-08-31T10:11:26;93.00;;;87.95;;
52186;SDS011;38161;53.020;6.598;2023-08-31T10:13:53;105.95;;;99.97;;
52186;SDS011;38161;53.020;6.598;2023-08-31T10:16:21;103.68;;;97.97;;
52186;SDS011;38161;53.020;6.598;2023-08-31T10:18:47;98.45;;;92.78;;
52186;SDS011;38161;53.020;6.598;2023-08-31T10:21:17;105.70;;;99.68;;
52186;SDS011;38161;53.020;6.598;2023-08-31T10:23:47;103.63;;;98.07;;
52186;SDS011;38161;53.020;6.598;2023-08-31T10:28:51;102.13;;;96.18;;
52186;SDS011;38161;53.020;6.598;2023-08-31T10:31:17;105.18;;;99.18;;
52186;SDS011;38161;53.020;6.598;2023-08-31T10:33:46;104.03;;;98.20;;
52186;SDS011;38161;53.020;6.598;2023-08-31T10:36:19;100.95;;;95.25;;
52186;SDS011;38161;53.020;6.598;2023-08-31T10:39:10;97.38;;;92.05;;
52186;SDS011;38161;53.020;6.598;2023-08-31T10:41:38;99.45;;;94.15;;
52186;SDS011;38161;53.020;6.598;2023-08-31T10:46:49;84.15;;;79.70;;
52186;SDS011;38161;53.020;6.598;2023-08-31T10:49:17;95.43;;;90.18;;
52186;SDS011;38161;53.020;6.598;2023-08-31T10:51:46;94.57;;;89.30;;
52186;SDS011;38161;53.020;6.598;2023-08-31T10:54:20;89.40;;;83.90;;
52186;SDS011;38161;53.020;6.598;2023-08-31T10:59:45;84.25;;;79.68;;
52186;SDS011;38161;53.020;6.598;2023-08-31T11:07:40;86.63;;;81.88;;
52186;SDS011;38161;53.020;6.598;2023-08-31T11:12:48;90.53;;;85.38;;
52186;SDS011;38161;53.020;6.598;2023-08-31T11:15:18;92.45;;;87.25;;
52186;SDS011;38161;53.020;6.598;2023-08-31T11:17:51;91.50;;;86.50;;
52186;SDS011;38161;53.020;6.598;2023-08-31T11:20:20;88.82;;;83.95;;
52186;SDS011;38161;53.020;6.598;2023-08-31T11:22:50;87.03;;;82.15;;
52186;SDS011;38161;53.020;6.598;2023-08-31T11:25:19;94.65;;;89.45;;
52186;SDS011;38161;53.020;6.598;2023-08-31T11:27:55;77.80;;;73.35;;
52186;SDS011;38161;53.020;6.598;2023-08-31T11:30:22;80.90;;;76.32;;
52186;SDS011;38161;53.020;6.598;2023-08-31T11:32:51;86.65;;;81.72;;
52186;SDS011;38161;53.020;6.598;2023-08-31T11:35:18;89.75;;;84.85;;
52186;SDS011;38161;53.020;6.598;2023-08-31T11:37:49;87.93;;;83.32;;
52186;SDS011;38161;53.020;6.598;2023-08-31T11:40:16;85.82;;;81.20;;
52186;SDS011;38161;53.020;6.598;2023-08-31T11:42:42;84.13;;;79.55;;
52186;SDS011;38161;53.020;6.598;2023-08-31T11:45:09;83.35;;;78.65;;
52186;SDS011;38161;53.020;6.598;2023-08-31T11:47:37;85.75;;;81.00;;
52186;SDS011;38161;53.020;6.598;2023-08-31T11:50:04;85.38;;;80.70;;
52186;SDS011;38161;53.020;6.598;2023-08-31T11:52:32;87.43;;;82.75;;
52186;SDS011;38161;53.020;6.598;2023-08-31T11:54:58;84.60;;;80.03;;
52186;SDS011;38161;53.020;6.598;2023-08-31T11:57:27;86.38;;;81.40;;
52186;SDS011;38161;53.020;6.598;2023-08-31T11:59:55;88.55;;;83.65;;
52186;SDS011;38161;53.020;6.598;2023-08-31T12:02:21;87.68;;;82.80;;
52186;SDS011;38161;53.020;6.598;2023-08-31T12:04:47;90.85;;;85.78;;
52186;SDS011;38161;53.020;6.598;2023-08-31T12:07:17;90.90;;;85.75;;
52186;SDS011;38161;53.020;6.598;2023-08-31T12:09:44;86.80;;;82.20;;
52186;SDS011;38161;53.020;6.598;2023-08-31T12:12:11;85.43;;;80.85;;
52186;SDS011;38161;53.020;6.598;2023-08-31T12:14:39;89.00;;;83.90;;
52186;SDS011;38161;53.020;6.598;2023-08-31T12:17:06;89.72;;;85.03;;
52186;SDS011;38161;53.020;6.598;2023-08-31T12:19:35;93.20;;;87.95;;
52186;SDS011;38161;53.020;6.598;2023-08-31T12:22:03;84.82;;;80.32;;
52186;SDS011;38161;53.020;6.598;2023-08-31T12:24:29;89.00;;;84.05;;
52186;SDS011;38161;53.020;6.598;2023-08-31T12:27:01;81.45;;;77.07;;
52186;SDS011;38161;53.020;6.598;2023-08-31T12:29:27;86.22;;;81.63;;
52186;SDS011;38161;53.020;6.598;2023-08-31T12:31:53;88.40;;;83.70;;
52186;SDS011;38161;53.020;6.598;2023-08-31T12:34:19;88.85;;;83.82;;
52186;SDS011;38161;53.020;6.598;2023-08-31T12:36:45;84.85;;;80.20;;
52186;SDS011;38161;53.020;6.598;2023-08-31T12:39:13;85.63;;;80.78;;
52186;SDS011;38161;53.020;6.598;2023-08-31T12:41:39;85.90;;;81.32;;
52186;SDS011;38161;53.020;6.598;2023-08-31T12:44:06;89.35;;;84.55;;
52186;SDS011;38161;53.020;6.598;2023-08-31T12:46:33;85.97;;;81.55;;
52186;SDS011;38161;53.020;6.598;2023-08-31T12:49:02;90.22;;;85.18;;
52186;SDS011;38161;53.020;6.598;2023-08-31T12:51:29;94.68;;;89.50;;
52186;SDS011;38161;53.020;6.598;2023-08-31T12:53:56;103.20;;;97.55;;
52186;SDS011;38161;53.020;6.598;2023-08-31T12:56:22;106.30;;;99.95;;
52186;SDS011;38161;53.020;6.598;2023-08-31T12:58:49;99.35;;;93.97;;
52186;SDS011;38161;53.020;6.598;2023-08-31T13:01:19;101.18;;;95.72;;
52186;SDS011;38161;53.020;6.598;2023-08-31T13:03:46;104.32;;;98.25;;
52186;SDS011;38161;53.020;6.598;2023-08-31T13:06:12;113.63;;;107.18;;
52186;SDS011;38161;53.020;6.598;2023-08-31T13:08:39;90.00;;;84.93;;
52186;SDS011;38161;53.020;6.598;2023-08-31T13:11:05;97.18;;;91.70;;
52186;SDS011;38161;53.020;6.598;2023-08-31T13:13:31;111.00;;;104.68;;
52186;SDS011;38161;53.020;6.598;2023-08-31T13:15:57;103.45;;;97.65;;
52186;SDS011;38161;53.020;6.598;2023-08-31T13:18:23;110.68;;;104.05;;
52186;SDS011;38161;53.020;6.598;2023-08-31T13:20:50;112.90;;;106.25;;
52186;SDS011;38161;53.020;6.598;2023-08-31T13:23:16;116.40;;;109.65;;
52186;SDS011;38161;53.020;6.598;2023-08-31T13:25:42;121.00;;;113.70;;
52186;SDS011;38161;53.020;6.598;2023-08-31T13:28:08;114.63;;;108.07;;
52186;SDS011;38161;53.020;6.598;2023-08-31T13:30:34;112.97;;;106.53;;
52186;SDS011;38161;53.020;6.598;2023-08-31T13:33:00;106.20;;;99.70;;
52186;SDS011;38161;53.020;6.598;2023-08-31T13:35:26;106.45;;;100.40;;
52186;SDS011;38161;53.020;6.598;2023-08-31T13:37:52;109.95;;;103.35;;
52186;SDS011;38161;53.020;6.598;2023-08-31T13:40:18;102.75;;;95.97;;
52186;SDS011;38161;53.020;6.598;2023-08-31T13:45:31;106.85;;;100.63;;
52186;SDS011;38161;53.020;6.598;2023-08-31T13:48:00;103.53;;;97.63;;
52186;SDS011;38161;53.020;6.598;2023-08-31T13:50:26;100.22;;;94.60;;
52186;SDS011;38161;53.020;6.598;2023-08-31T13:52:53;103.15;;;97.25;;
52186;SDS011;38161;53.020;6.598;2023-08-31T13:55:19;112.47;;;105.75;;
52186;SDS011;38161;53.020;6.598;2023-08-31T13:57:45;106.60;;;100.75;;
52186;SDS011;38161;53.020;6.598;2023-08-31T14:00:11;108.68;;;102.55;;
52186;SDS011;38161;53.020;6.598;2023-08-31T14:02:38;100.45;;;94.95;;
52186;SDS011;38161;53.020;6.598;2023-08-31T14:05:04;96.55;;;91.10;;
52186;SDS011;38161;53.020;6.598;2023-08-31T14:07:38;95.05;;;89.03;;
52186;SDS011;38161;53.020;6.598;2023-08-31T14:10:04;91.30;;;86.22;;
52186;SDS011;38161;53.020;6.598;2023-08-31T14:12:31;86.90;;;82.22;;
52186;SDS011;38161;53.020;6.598;2023-08-31T14:14:58;95.00;;;89.70;;
52186;SDS011;38161;53.020;6.598;2023-08-31T14:17:24;93.07;;;87.97;;
52186;SDS011;38161;53.020;6.598;2023-08-31T14:19:49;100.07;;;94.20;;
52186;SDS011;38161;53.020;6.598;2023-08-31T14:22:15;99.20;;;93.43;;
52186;SDS011;38161;53.020;6.598;2023-08-31T14:24:41;96.05;;;90.78;;
52186;SDS011;38161;53.020;6.598;2023-08-31T14:27:07;93.03;;;87.72;;
52186;SDS011;38161;53.020;6.598;2023-08-31T14:29:33;91.88;;;86.82;;
52186;SDS011;38161;53.020;6.598;2023-08-31T14:32:00;85.63;;;80.90;;
52186;SDS011;38161;53.020;6.598;2023-08-31T14:34:26;85.35;;;80.65;;
52186;SDS011;38161;53.020;6.598;2023-08-31T14:36:52;89.32;;;84.50;;
52186;SDS011;38161;53.020;6.598;2023-08-31T14:39:19;94.70;;;89.35;;
52186;SDS011;38161;53.020;6.598;2023-08-31T14:41:44;93.57;;;88.20;;
52186;SDS011;38161;53.020;6.598;2023-08-31T14:44:10;91.43;;;86.47;;
52186;SDS011;38161;53.020;6.598;2023-08-31T14:46:36;88.43;;;83.38;;
52186;SDS011;38161;53.020;6.598;2023-08-31T14:49:02;91.45;;;86.55;;
52186;SDS011;38161;53.020;6.598;2023-08-31T14:51:29;96.10;;;90.80;;
52186;SDS011;38161;53.020;6.598;2023-08-31T14:53:55;87.20;;;82.18;;
52186;SDS011;38161;53.020;6.598;2023-08-31T14:59:29;100.85;;;94.95;;
52186;SDS011;38161;53.020;6.598;2023-08-31T15:01:55;88.90;;;83.70;;
52186;SDS011;38161;53.020;6.598;2023-08-31T15:04:21;92.68;;;87.78;;
52186;SDS011;38161;53.020;6.598;2023-08-31T15:06:47;81.97;;;77.43;;
52186;SDS011;38161;53.020;6.598;2023-08-31T15:09:13;84.30;;;79.68;;
52186;SDS011;38161;53.020;6.598;2023-08-31T15:11:39;87.38;;;82.63;;
52186;SDS011;38161;53.020;6.598;2023-08-31T15:14:04;90.28;;;85.43;;
52186;SDS011;38161;53.020;6.598;2023-08-31T15:16:31;88.65;;;83.68;;
52186;SDS011;38161;53.020;6.598;2023-08-31T15:19:00;87.65;;;82.88;;